Terminal Aerodrome Forecast
Issued by NWS

Home | Current Version | Previous Version | Text Only | Print | Product List | Glossary On
Versions: 1 2 3 4 5 6 7 8 9 10 11 12 13 14 15 16 17 18 19 20 21 22 23 24 25
000
FTUS43 KOAX 230231 AAB
TAFSNY
TAF AMD
KSNY 230231Z 2303/2324 12015G25KT 3SM BR OVC004
      TEMPO 2303/2305 1SM BR OVC002
     FM230500 12011KT 1SM BR OVC003
     FM230700 13010KT 1/4SM -DZ FG VV001
     FM231500 05012KT 2SM BR OVC003
     FM231800 16015G25KT P6SM VCTS BKN015CB=

USA.gov is the U.S. government's official web portal to all federal, state and local government web resources and services.